Time;durP1;ratioP1;P1;durP2;ratioP2;P2;SDS_P1;SDS_P2;PMS_P1;PMS_P2;Temp;Humidity;BMP_temperature;BMP_pressure;BME280_temperature;BME280_humidity;BME280_pressure;Samples;Min_cycle;Max_cycle;Signal;HPM_P1;HPM_P2
2023/05/02 00:00:53;;;;;;;22.60;16.90;;;;;;;15.36;49.84;99977.59;5029773;28;20053;-80
2023/05/02 00:03:20;;;;;;;25.13;17.67;;;;;;;15.32;50.05;99981.41;5031023;28;20104;-80
2023/05/02 00:05:47;;;;;;;22.40;17.35;;;;;;;15.29;50.27;99976.38;5030507;28;20041;-81
2023/05/02 00:08:15;;;;;;;25.33;17.92;;;;;;;15.26;50.45;99974.78;5030115;28;20053;-80
2023/05/02 00:10:41;;;;;;;28.00;19.50;;;;;;;15.25;50.45;99973.06;5030695;28;20402;-81
2023/05/02 00:13:09;;;;;;;25.63;18.55;;;;;;;15.22;50.93;99974.16;5030723;28;20502;-81
2023/05/02 00:15:36;;;;;;;24.75;17.52;;;;;;;15.20;50.74;99962.81;5028892;28;20140;-80
2023/05/02 00:18:02;;;;;;;27.15;19.17;;;;;;;15.19;50.84;99969.09;5030454;28;20045;-80
2023/05/02 00:20:29;;;;;;;28.13;19.10;;;;;;;15.16;50.79;99973.75;5030697;28;20409;-80
2023/05/02 00:22:56;;;;;;;24.92;18.27;;;;;;;15.15;51.11;99974.72;5030779;28;20057;-81
2023/05/02 00:25:22;;;;;;;26.48;19.25;;;;;;;15.11;51.16;99976.75;5030170;28;20057;-82
2023/05/02 00:27:49;;;;;;;27.60;18.45;;;;;;;15.08;51.18;99975.19;5030420;28;20144;-80
2023/05/02 00:30:17;;;;;;;25.45;18.23;;;;;;;15.05;51.26;99971.88;5030798;28;20506;-81
2023/05/02 00:32:44;;;;;;;28.25;17.70;;;;;;;15.04;51.55;99980.81;5030642;28;20104;-81
2023/05/02 00:35:11;;;;;;;23.38;18.38;;;;;;;15.03;51.58;99979.94;5030140;28;20089;-81
2023/05/02 00:37:37;;;;;;;26.73;18.42;;;;;;;15.01;51.61;99979.22;5030122;28;20067;-80
2023/05/02 00:40:06;;;;;;;26.60;18.80;;;;;;;15.00;51.95;99982.84;5033926;28;20057;-81
2023/05/02 00:42:34;;;;;;;30.63;20.60;;;;;;;15.00;52.07;99987.28;5050538;28;20493;-80
2023/05/02 00:45:05;;;;;;;30.02;20.35;;;;;;;14.98;52.34;99987.38;5032542;28;20079;-81
2023/05/02 00:47:31;;;;;;;28.15;18.98;;;;;;;14.95;52.25;99988.44;5032501;28;20045;-81
2023/05/02 00:49:59;;;;;;;29.52;19.95;;;;;;;14.94;52.27;99993.88;5050359;28;20452;-82
2023/05/02 00:52:27;;;;;;;26.77;18.88;;;;;;;14.92;52.47;99999.28;5050136;28;20053;-81
2023/05/02 00:54:54;;;;;;;26.23;19.27;;;;;;;14.91;52.52;99996.75;5050098;28;20128;-80
2023/05/02 00:57:21;;;;;;;26.33;19.17;;;;;;;14.89;52.65;99991.56;5050077;28;20128;-81
2023/05/02 00:59:48;;;;;;;27.48;18.65;;;;;;;14.90;53.15;99987.94;5032727;28;20413;-81
2023/05/02 01:02:27;;;;;;;28.67;19.55;;;;;;;14.88;54.07;99989.84;5050175;28;20045;-82
2023/05/02 01:05:00;;;;;;;27.55;19.05;;;;;;;14.91;52.79;99991.44;5049804;28;20049;-80
2023/05/02 01:08:13;;;;;;;28.70;18.10;;;;;;;14.87;54.51;99990.81;5049938;28;20128;-82
2023/05/02 01:10:51;;;;;;;25.00;16.35;;;;;;;14.88;54.26;99987.19;5003604;28;20053;-82
2023/05/02 01:13:27;;;;;;;24.80;16.13;;;;;;;14.88;53.69;99991.66;5051360;28;20136;-81
2023/05/02 01:15:57;;;;;;;21.67;15.38;;;;;;;14.87;53.10;99998.75;5053790;28;20076;-81
2023/05/02 01:18:27;;;;;;;25.40;17.77;;;;;;;14.85;53.31;99995.38;5035962;28;20059;-80
2023/05/02 01:21:00;;;;;;;23.58;16.13;;;;;;;14.81;53.94;99993.91;5036313;28;20053;-80
2023/05/02 01:23:45;;;;;;;;;;;;;;;14.81;52.20;99999.22;5036537;28;20063;-82
2023/05/02 01:26:15;;;;;;;21.10;14.38;;;;;;;14.84;52.25;99991.03;5053526;28;19921;-80
2023/05/02 01:28:48;;;;;;;22.42;15.18;;;;;;;14.80;53.74;99992.22;5035821;28;20056;-81
2023/05/02 01:31:15;;;;;;;23.35;16.63;;;;;;;14.78;52.94;99994.13;5053738;28;20065;-81
2023/05/02 01:33:45;;;;;;;24.13;16.98;;;;;;;14.75;53.50;99996.94;5053671;28;20052;-82
2023/05/02 01:36:14;;;;;;;22.80;16.40;;;;;;;14.71;53.50;99994.53;5052946;28;20095;-81
2023/05/02 01:38:42;;;;;;;20.17;15.13;;;;;;;14.69;53.45;99993.78;5053308;28;20489;-81
2023/05/02 01:41:11;;;;;;;20.38;15.00;;;;;;;14.67;53.53;99998.34;5053672;28;20103;-81
2023/05/02 01:43:40;;;;;;;21.92;16.23;;;;;;;14.67;53.37;99998.34;5035770;28;20144;-81
2023/05/02 01:46:09;;;;;;;24.38;16.77;;;;;;;14.66;53.58;100003.75;5053056;28;20131;-81
2023/05/02 01:48:36;;;;;;;26.90;17.75;;;;;;;14.64;53.58;100008.28;5053024;28;20473;-81
2023/05/02 01:51:06;;;;;;;25.35;17.20;;;;;;;14.62;54.14;100015.53;5053174;28;20041;-82
2023/05/02 01:53:34;;;;;;;22.92;15.80;;;;;;;14.62;53.85;100011.09;5035614;28;20341;-81
2023/05/02 01:56:02;;;;;;;24.33;15.63;;;;;;;14.60;53.87;100015.63;5052887;28;20053;-81
2023/05/02 01:58:30;;;;;;;23.45;15.68;;;;;;;14.57;53.90;100021.13;5035109;28;20103;-81
2023/05/02 02:00:59;;;;;;;22.13;15.18;;;;;;;14.54;54.39;100019.53;5053025;28;20135;-81
2023/05/02 02:03:29;;;;;;;28.50;16.90;;;;;;;14.52;55.11;100023.25;4600036;22;20229;-79
2023/05/02 02:05:58;;;;;;;24.80;14.82;;;;;;;14.53;54.40;100022.28;5032544;28;20085;-79
2023/05/02 02:08:25;;;;;;;24.33;15.95;;;;;;;14.53;54.43;100033.75;5032497;28;20050;-79
2023/05/02 02:10:58;;;;;;;23.88;15.20;;;;;;;14.49;55.38;100029.63;5033127;28;20096;-78
2023/05/02 02:13:30;;;;;;;19.55;13.93;;;;;;;14.51;54.99;100034.81;5031613;28;20144;-80
2023/05/02 02:16:00;;;;;;;21.87;13.77;;;;;;;14.49;55.00;100037.56;5031199;28;20088;-78
2023/05/02 02:18:31;;;;;;;23.30;14.43;;;;;;;14.49;54.69;100037.56;5032348;28;20584;-79
2023/05/02 02:20:58;;;;;;;21.38;14.00;;;;;;;14.49;54.79;100042.00;5031545;28;20054;-79
2023/05/02 02:23:28;;;;;;;20.90;14.13;;;;;;;14.46;55.14;100041.28;5032849;28;20046;-79
2023/05/02 02:25:56;;;;;;;23.95;15.23;;;;;;;14.46;55.01;100045.72;5029997;28;20085;-78
2023/05/02 02:28:22;;;;;;;20.40;13.73;;;;;;;14.44;54.97;100045.81;5032328;28;20132;-79
2023/05/02 02:30:49;;;;;;;21.83;14.30;;;;;;;14.42;55.14;100038.94;5032568;28;20496;-80
2023/05/02 02:33:17;;;;;;;22.15;13.90;;;;;;;14.40;55.37;100051.44;5032437;28;20155;-78
2023/05/02 02:35:51;;;;;;;21.05;13.45;;;;;;;14.35;56.44;100051.75;5032207;28;20049;-79
2023/05/02 02:39:03;;;;;;;18.13;12.05;;;;;;;14.30;56.54;100048.56;5032063;28;20144;-79
2023/05/02 02:41:44;;;;;;;21.15;13.45;;;;;;;14.29;56.95;100057.47;4990446;28;20120;-78
2023/05/02 02:44:23;;;;;;;20.17;13.07;;;;;;;14.29;57.16;100052.19;4990526;28;20672;-79
2023/05/02 02:47:01;;;;;;;17.30;11.50;;;;;;;14.28;57.00;100058.44;5018955;28;20505;-78
2023/05/02 02:49:44;;;;;;;18.23;11.82;;;;;;;14.24;58.05;100055.13;5032235;28;20092;-79
2023/05/02 02:52:26;;;;;;;13.98;10.27;;;;;;;14.24;57.61;100064.88;5032162;28;20048;-79
2023/05/02 02:54:59;;;;;;;14.20;9.70;;;;;;;14.22;57.57;100064.13;5031891;28;20060;-78
2023/05/02 02:58:18;;;;;;;14.77;9.88;;;;;;;14.15;57.92;100067.19;5031701;28;20501;-79
2023/05/02 03:00:46;;;;;;;14.55;9.60;;;;;;;14.19;56.37;100075.78;5019627;28;20049;-79
2023/05/02 03:03:14;;;;;;;10.25;7.93;;;;;;;14.17;56.54;100069.75;5030776;28;20049;-79
2023/05/02 03:05:43;;;;;;;12.32;8.85;;;;;;;14.14;57.26;100068.16;5031589;28;20056;-80
2023/05/02 03:08:09;;;;;;;13.30;8.82;;;;;;;14.14;56.96;100080.53;5031505;28;20053;-80
2023/05/02 03:10:36;;;;;;;11.15;8.20;;;;;;;14.13;56.85;100076.19;5031776;28;20144;-79
2023/05/02 03:13:02;;;;;;;12.52;8.65;;;;;;;14.12;57.31;100083.28;5032030;28;20057;-79
2023/05/02 03:15:48;;;;;;;10.60;7.60;;;;;;;14.12;57.46;100085.06;5030529;28;20056;-78
2023/05/02 03:18:16;;;;;;;11.70;8.43;;;;;;;14.12;57.14;100090.34;5029946;28;20053;-79
2023/05/02 03:20:42;;;;;;;11.30;8.10;;;;;;;14.13;57.35;100094.72;5030050;28;20748;-79
2023/05/02 03:23:09;;;;;;;12.40;8.93;;;;;;;14.14;57.60;100094.63;5025485;28;20078;-79
2023/05/02 03:25:35;;;;;;;12.45;8.13;;;;;;;14.16;57.59;100100.66;5030195;28;20157;-79
2023/05/02 03:28:02;;;;;;;10.52;7.70;;;;;;;14.16;57.77;100103.31;5030120;28;20053;-81
2023/05/02 03:30:29;;;;;;;10.80;6.97;;;;;;;14.19;57.58;100107.53;5031701;28;20058;-79
2023/05/02 03:32:55;;;;;;;8.90;6.55;;;;;;;14.19;57.58;100108.41;5031676;28;20399;-79
2023/05/02 03:35:25;;;;;;;8.27;5.45;;;;;;;14.22;57.45;100114.44;5031109;28;20045;-80
2023/05/02 03:37:52;;;;;;;7.25;4.82;;;;;;;14.22;57.35;100119.72;5030650;28;20057;-79
2023/05/02 03:40:20;;;;;;;6.90;4.78;;;;;;;14.22;57.38;100123.22;5031445;28;20060;-79
2023/05/02 03:42:47;;;;;;;6.40;4.35;;;;;;;14.21;57.17;100121.53;5031712;28;20151;-77
2023/05/02 03:45:14;;;;;;;6.60;4.47;;;;;;;14.18;57.09;100121.72;5030762;28;20545;-83
2023/05/02 03:47:41;;;;;;;6.18;3.70;;;;;;;14.17;57.04;100133.28;5030665;28;20383;-80
2023/05/02 03:50:09;;;;;;;3.88;3.00;;;;;;;14.13;57.08;100137.91;5029849;28;20050;-80
2023/05/02 03:52:36;;;;;;;4.70;2.97;;;;;;;14.11;56.93;100139.81;5031249;28;20056;-81
2023/05/02 03:55:04;;;;;;;5.50;3.25;;;;;;;14.10;56.97;100142.56;5030890;28;20056;-80
2023/05/02 03:57:31;;;;;;;4.63;3.28;;;;;;;14.06;57.08;100147.22;5030799;28;20080;-81
2023/05/02 03:59:58;;;;;;;3.20;2.65;;;;;;;14.03;56.86;100148.28;5031446;28;20060;-84
2023/05/02 04:02:25;;;;;;;3.88;2.47;;;;;;;14.01;56.98;100152.81;5030680;28;20080;-79
2023/05/02 04:04:52;;;;;;;2.40;2.13;;;;;;;13.98;56.87;100152.16;5030744;28;20053;-81
2023/05/02 04:07:18;;;;;;;4.10;2.45;;;;;;;13.94;56.50;100159.44;5029633;28;20049;-80
2023/05/02 04:09:45;;;;;;;4.03;2.67;;;;;;;13.90;56.56;100169.38;5031080;28;20052;-80
2023/05/02 04:12:14;;;;;;;2.95;2.58;;;;;;;13.86;56.85;100172.34;5030761;28;20494;-81
2023/05/02 04:14:40;;;;;;;1.95;1.75;;;;;;;13.82;56.17;100174.31;5030356;28;20081;-85
2023/05/02 04:17:07;;;;;;;2.97;1.98;;;;;;;13.78;56.13;100176.31;5029956;28;20052;-80
2023/05/02 04:19:34;;;;;;;3.00;1.77;;;;;;;13.74;56.19;100185.41;5030671;28;20092;-80
2023/05/02 04:22:02;;;;;;;2.58;1.80;;;;;;;13.70;56.30;100180.38;5030999;28;20045;-80
2023/05/02 04:24:29;;;;;;;2.13;1.90;;;;;;;13.67;56.29;100177.00;5031035;28;20064;-79
2023/05/02 04:26:55;;;;;;;3.15;1.80;;;;;;;13.67;56.36;100176.13;5029828;28;20095;-82
2023/05/02 04:29:22;;;;;;;3.08;1.63;;;;;;;13.66;56.11;100188.53;5030746;28;20049;-81
2023/05/02 04:31:49;;;;;;;2.95;1.95;;;;;;;13.67;56.11;100190.22;5030509;28;20057;-80
2023/05/02 04:34:16;;;;;;;2.45;1.70;;;;;;;13.67;55.99;100192.88;5031012;28;20049;-81
2023/05/02 04:36:45;;;;;;;5.18;2.10;;;;;;;13.66;56.43;100207.06;5029716;28;20140;-81
2023/05/02 04:39:12;;;;;;;3.08;2.30;;;;;;;13.67;55.76;100203.47;5030853;28;20139;-81
2023/05/02 04:41:39;;;;;;;4.65;2.15;;;;;;;13.67;55.90;100208.75;5029641;28;20096;-80
2023/05/02 04:44:06;;;;;;;3.67;2.38;;;;;;;13.67;55.98;100213.19;5030956;28;20708;-83
2023/05/02 04:46:32;;;;;;;6.70;2.60;;;;;;;13.68;56.00;100214.88;5030551;28;20076;-83
2023/05/02 04:48:59;;;;;;;6.18;2.67;;;;;;;13.67;55.97;100219.31;5032762;28;20061;-80
2023/05/02 04:51:27;;;;;;;3.55;2.20;;;;;;;13.68;56.13;100228.97;5034756;28;20136;-80
2023/05/02 04:53:54;;;;;;;5.15;2.92;;;;;;;13.68;56.25;100228.09;5035588;28;20053;-79
2023/05/02 04:56:21;;;;;;;3.08;2.35;;;;;;;13.68;56.18;100236.91;5035264;28;20464;-82
2023/05/02 04:58:47;;;;;;;8.43;2.83;;;;;;;13.68;56.17;100243.97;5035420;28;20057;-80
2023/05/02 05:01:13;;;;;;;6.38;3.05;;;;;;;13.66;56.20;100248.53;5035429;28;20111;-82
2023/05/02 05:03:40;;;;;;;3.67;2.22;;;;;;;13.64;56.34;100256.53;5034380;28;20084;-79
2023/05/02 05:06:07;;;;;;;4.03;2.30;;;;;;;13.62;56.48;100271.69;5033755;28;20104;-82
2023/05/02 05:08:33;;;;;;;5.13;2.88;;;;;;;13.58;56.44;100270.16;5033649;28;20052;-80
2023/05/02 05:11:00;;;;;;;2.13;1.73;;;;;;;13.55;56.40;100280.91;5035270;28;20053;-80
2023/05/02 05:13:27;;;;;;;1.77;1.40;;;;;;;13.50;56.08;100283.00;5035598;28;20057;-79
2023/05/02 05:15:53;;;;;;;4.97;1.70;;;;;;;13.42;55.72;100289.56;5034943;28;20061;-82
2023/05/02 05:18:20;;;;;;;4.47;1.90;;;;;;;13.34;55.71;100299.75;5034599;28;20056;-80
2023/05/02 05:20:47;;;;;;;3.28;1.73;;;;;;;13.25;55.54;100300.31;5035217;28;20046;-80
2023/05/02 05:23:13;;;;;;;4.05;1.80;;;;;;;13.15;55.71;100297.34;5035062;28;20056;-80
2023/05/02 05:25:40;;;;;;;3.05;1.67;;;;;;;13.07;55.77;100311.03;5034650;28;20057;-81
2023/05/02 05:28:08;;;;;;;2.13;1.52;;;;;;;12.99;55.78;100310.63;5034541;28;20068;-81
2023/05/02 05:30:35;;;;;;;2.97;1.67;;;;;;;12.93;55.92;100316.28;5034032;28;20053;-79
2023/05/02 05:33:01;;;;;;;4.45;1.35;;;;;;;12.86;56.03;100321.91;5034890;28;20498;-80
2023/05/02 05:35:28;;;;;;;3.33;1.42;;;;;;;12.82;55.89;100325.66;5035049;28;20514;-80
2023/05/02 05:37:55;;;;;;;4.57;2.00;;;;;;;12.77;56.18;100333.88;5034392;28;20065;-81
2023/05/02 05:40:21;;;;;;;3.45;1.90;;;;;;;12.74;56.02;100338.44;5034726;28;20490;-79
2023/05/02 05:42:48;;;;;;;5.25;1.80;;;;;;;12.71;56.11;100339.47;5034635;28;20057;-80
2023/05/02 05:45:16;;;;;;;6.53;2.35;;;;;;;12.68;56.04;100349.38;5034542;28;20056;-81
2023/05/02 05:47:42;;;;;;;8.43;2.58;;;;;;;12.64;56.23;100346.91;5033864;28;20502;-79
2023/05/02 05:50:09;;;;;;;7.38;2.80;;;;;;;12.60;56.24;100355.94;5033031;28;20516;-80
2023/05/02 05:52:36;;;;;;;8.13;2.80;;;;;;;12.59;56.35;100363.94;5033622;28;20107;-81
2023/05/02 05:55:03;;;;;;;6.32;2.75;;;;;;;12.56;56.33;100361.50;5031833;28;20054;-81
2023/05/02 05:57:29;;;;;;;7.18;3.00;;;;;;;12.54;56.36;100371.25;5031616;28;20053;-83
2023/05/02 05:59:56;;;;;;;5.90;2.40;;;;;;;12.52;55.97;100384.53;5033411;28;20103;-83
2023/05/02 06:02:23;;;;;;;7.43;2.55;;;;;;;12.47;55.75;100379.53;5032995;28;20057;-80
2023/05/02 06:04:49;;;;;;;9.18;2.75;;;;;;;12.42;55.91;100383.38;5033771;28;20103;-79
2023/05/02 06:07:16;;;;;;;10.65;2.70;;;;;;;12.34;55.54;100389.91;5032722;28;20433;-80
2023/05/02 06:09:42;;;;;;;12.88;3.17;;;;;;;12.28;55.63;100389.38;5034182;28;20046;-86
2023/05/02 06:12:08;;;;;;;11.82;2.53;;;;;;;12.23;55.71;100402.84;5033829;28;20061;-81
2023/05/02 06:14:35;;;;;;;7.40;2.60;;;;;;;12.18;55.83;100407.53;5033976;28;20535;-81
2023/05/02 06:17:01;;;;;;;16.92;3.58;;;;;;;12.12;55.92;100406.06;5033224;28;20568;-79
2023/05/02 06:19:28;;;;;;;11.80;2.65;;;;;;;12.08;56.04;100408.00;5033063;28;20049;-81
2023/05/02 06:21:54;;;;;;;12.00;3.38;;;;;;;12.05;55.96;100415.19;5034372;28;20111;-80
2023/05/02 06:24:21;;;;;;;16.92;3.70;;;;;;;12.02;56.04;100416.22;5033628;28;20049;-83
2023/05/02 06:26:47;;;;;;;11.82;3.20;;;;;;;11.99;55.98;100419.88;5033518;28;20050;-81
2023/05/02 06:29:14;;;;;;;15.95;4.22;;;;;;;11.97;55.92;100420.88;5032649;28;20061;-80
2023/05/02 06:31:40;;;;;;;14.00;3.33;;;;;;;11.96;56.01;100432.38;5033593;28;20123;-80
2023/05/02 06:34:07;;;;;;;17.60;3.63;;;;;;;11.95;56.01;100433.28;5032462;28;20409;-79
2023/05/02 06:36:33;;;;;;;12.27;3.38;;;;;;;11.92;56.04;100431.66;5032966;28;20056;-87
2023/05/02 06:39:00;;;;;;;10.60;2.83;;;;;;;11.92;56.09;100433.47;5033838;28;20097;-82
2023/05/02 06:41:26;;;;;;;8.98;2.60;;;;;;;11.89;55.95;100445.00;5034025;28;20099;-79
2023/05/02 06:43:53;;;;;;;7.63;3.13;;;;;;;11.86;56.02;100448.66;5033557;28;20510;-80
2023/05/02 06:46:19;;;;;;;12.95;3.17;;;;;;;11.85;55.89;100457.50;5033128;28;20088;-80
2023/05/02 06:48:46;;;;;;;12.55;2.92;;;;;;;11.83;56.09;100466.44;5031869;28;20050;-83
2023/05/02 06:51:13;;;;;;;11.27;3.40;;;;;;;11.81;56.45;100468.31;5033367;28;20050;-81
2023/05/02 06:53:40;;;;;;;16.02;3.88;;;;;;;11.80;56.21;100480.63;5033540;28;20049;-79
2023/05/02 06:56:07;;;;;;;10.02;3.10;;;;;;;11.81;56.38;100481.50;5031704;28;20056;-79
2023/05/02 06:58:33;;;;;;;15.20;3.67;;;;;;;11.83;56.54;100487.53;5032837;28;20569;-79
2023/05/02 07:01:00;;;;;;;12.20;3.88;;;;;;;11.83;56.55;100493.69;5031901;28;20403;-78
2023/05/02 07:03:26;;;;;;;10.52;3.72;;;;;;;11.89;56.62;100491.66;5031649;28;20099;-79
2023/05/02 07:05:53;;;;;;;8.63;3.33;;;;;;;11.91;56.61;100497.69;5032928;28;20049;-83
2023/05/02 07:08:21;;;;;;;14.48;3.42;;;;;;;11.95;56.59;100500.09;5032811;28;20053;-80
2023/05/02 07:10:47;;;;;;;11.80;4.00;;;;;;;12.02;56.54;100502.41;5032611;28;20136;-81
2023/05/02 07:13:14;;;;;;;17.38;3.83;;;;;;;12.07;56.37;100508.38;5033218;28;20053;-80
2023/05/02 07:15:41;;;;;;;13.43;2.85;;;;;;;12.11;56.35;100516.03;5032622;28;20080;-78
2023/05/02 07:18:08;;;;;;;11.38;3.10;;;;;;;12.18;56.25;100521.00;5032788;28;20501;-80
2023/05/02 07:20:34;;;;;;;6.43;2.40;;;;;;;12.22;55.92;100522.53;5032884;28;20046;-80
2023/05/02 07:23:01;;;;;;;12.57;3.08;;;;;;;12.27;55.63;100523.19;5033366;28;20673;-79
2023/05/02 07:25:28;;;;;;;9.70;2.85;;;;;;;12.33;55.52;100527.25;5031519;28;20050;-79
2023/05/02 07:27:54;;;;;;;8.48;2.58;;;;;;;12.36;55.21;100529.75;5032526;28;20049;-80
2023/05/02 07:30:21;;;;;;;9.50;2.42;;;;;;;12.39;55.13;100537.50;5032807;28;20460;-80
2023/05/02 07:32:47;;;;;;;11.45;2.80;;;;;;;12.42;55.31;100533.84;5031366;28;20054;-80
2023/05/02 07:35:14;;;;;;;9.85;2.80;;;;;;;12.47;55.30;100540.63;5031144;28;20064;-79
2023/05/02 07:37:40;;;;;;;11.70;2.47;;;;;;;12.55;55.30;100534.06;5031917;28;20517;-80
2023/05/02 07:40:08;;;;;;;13.10;3.05;;;;;;;12.62;55.53;100536.31;5032715;28;20049;-80
2023/05/02 07:42:35;;;;;;;9.73;2.40;;;;;;;12.71;55.68;100540.22;5031517;28;20088;-79
2023/05/02 07:45:01;;;;;;;8.82;2.50;;;;;;;12.82;55.25;100547.59;5032247;28;20076;-79
2023/05/02 07:47:28;;;;;;;8.25;2.30;;;;;;;12.92;54.99;100552.38;5031911;28;20053;-79
2023/05/02 07:49:55;;;;;;;8.65;2.97;;;;;;;13.00;55.05;100548.38;5032170;28;20057;-79
2023/05/02 07:52:21;;;;;;;8.00;2.45;;;;;;;13.07;54.51;100550.69;5031298;28;20053;-80
2023/05/02 07:54:49;;;;;;;7.82;2.05;;;;;;;13.13;54.14;100550.38;5032054;28;20088;-79
2023/05/02 07:57:16;;;;;;;7.40;2.35;;;;;;;13.16;53.68;100553.69;5031860;28;20057;-80
2023/05/02 07:59:43;;;;;;;14.25;2.75;;;;;;;13.21;53.53;100560.50;5031009;28;20449;-78
2023/05/02 08:02:11;;;;;;;10.25;2.92;;;;;;;13.22;53.12;100564.84;5032370;28;20112;-78
2023/05/02 17:35:55;;;;;;;1.30;1.00;;;;;;;14.66;38.95;100928.50;5112882;22;20111;-80
2023/05/02 17:38:21;;;;;;;5.00;1.00;;;;;;;14.59;39.21;100928.00;5051789;28;20128;-79
2023/05/02 17:40:48;;;;;;;2.85;0.98;;;;;;;14.55;39.14;100929.09;5052370;28;20482;-80
2023/05/02 17:43:15;;;;;;;3.53;1.10;;;;;;;14.50;39.48;100933.78;5051779;28;20078;-81
2023/05/02 17:45:42;;;;;;;2.88;0.85;;;;;;;14.46;39.38;100931.31;5051307;28;20543;-78
2023/05/02 17:50:38;;;;;;;4.93;1.55;;;;;;;14.41;39.85;100930.72;5144917;22;20412;-80
2023/05/02 17:53:06;;;;;;;3.45;1.00;;;;;;;14.40;39.78;100930.78;5071923;28;20493;-80
2023/05/02 17:55:36;;;;;;;2.70;1.02;;;;;;;14.36;40.10;100923.94;5071321;28;20563;-79
2023/05/02 17:58:03;;;;;;;3.83;1.00;;;;;;;14.36;39.83;100935.41;5072591;28;20148;-81
2023/05/02 18:00:30;;;;;;;3.92;1.20;;;;;;;14.33;39.66;100932.91;5073056;28;20060;-81
2023/05/02 18:02:56;;;;;;;3.17;0.90;;;;;;;14.30;39.89;100935.72;5073152;28;20059;-80
2023/05/02 18:05:26;;;;;;;3.42;1.08;;;;;;;14.28;39.89;100935.78;5072637;28;20041;-80
2023/05/02 18:07:54;;;;;;;4.65;1.13;;;;;;;14.26;39.90;100942.97;5072726;28;20055;-80
2023/05/02 18:10:20;;;;;;;3.38;0.98;;;;;;;14.26;40.04;100944.75;5055148;28;20080;-80
2023/05/02 18:12:47;;;;;;;4.18;1.30;;;;;;;14.23;40.03;100945.78;5072853;28;20496;-80
2023/05/02 18:15:14;;;;;;;1.83;1.17;;;;;;;14.22;39.82;100949.38;5054772;28;20048;-81
2023/05/02 18:17:40;;;;;;;2.90;1.30;;;;;;;14.19;40.03;100946.88;5072495;28;20045;-81
2023/05/02 18:20:08;;;;;;;4.68;1.13;;;;;;;14.15;40.01;100946.19;5072880;28;20156;-81
2023/05/02 18:22:35;;;;;;;4.20;1.13;;;;;;;14.11;40.06;100954.38;5072787;28;20094;-81
2023/05/02 18:25:02;;;;;;;1.77;1.00;;;;;;;14.07;40.04;100959.00;5054493;28;20048;-80
2023/05/02 18:27:29;;;;;;;3.20;1.00;;;;;;;14.03;40.34;100944.19;5072135;28;20084;-81
2023/05/02 18:29:56;;;;;;;3.58;1.35;;;;;;;13.99;40.18;100961.19;5054954;28;20047;-80
2023/05/02 18:32:24;;;;;;;2.67;1.05;;;;;;;13.94;40.37;100959.63;5072718;28;20055;-80
2023/05/02 18:34:51;;;;;;;2.78;1.10;;;;;;;13.91;40.62;100966.88;5072236;28;20056;-81
2023/05/02 18:37:17;;;;;;;1.88;1.00;;;;;;;13.88;40.54;100965.25;5072092;28;20106;-81
2023/05/02 18:39:44;;;;;;;5.80;1.52;;;;;;;13.86;40.58;100960.97;5054691;28;20566;-81
2023/05/02 18:42:11;;;;;;;2.58;0.98;;;;;;;13.84;40.78;100969.00;5072398;28;20056;-80
2023/05/02 18:44:38;;;;;;;2.20;1.10;;;;;;;13.82;40.88;100968.19;5072393;28;20071;-81
2023/05/02 18:47:05;;;;;;;6.35;1.23;;;;;;;13.77;40.99;100973.75;5071743;28;20098;-81
2023/05/02 18:49:31;;;;;;;6.78;1.10;;;;;;;13.74;41.04;100973.88;5072167;28;20044;-80
2023/05/02 18:51:58;;;;;;;3.08;1.20;;;;;;;13.71;41.24;100973.19;5071991;28;20048;-80
2023/05/02 18:54:26;;;;;;;3.47;1.30;;;;;;;13.68;41.16;100969.75;5071988;28;20136;-80
2023/05/02 18:56:53;;;;;;;3.58;1.67;;;;;;;13.66;41.20;100974.28;5071750;28;20048;-80
2023/05/02 18:59:19;;;;;;;5.57;1.10;;;;;;;13.63;41.23;100973.56;5072097;28;20098;-80
2023/05/02 19:01:49;;;;;;;1.63;0.90;;;;;;;13.59;41.28;100980.81;5072213;28;20056;-80
2023/05/02 19:04:16;;;;;;;4.90;1.10;;;;;;;13.54;41.64;100982.84;5054185;28;20091;-81
2023/05/02 19:06:42;;;;;;;1.67;0.85;;;;;;;13.50;41.74;100982.09;5070326;28;20144;-81
2023/05/02 19:09:11;;;;;;;2.83;0.88;;;;;;;13.46;41.73;100980.50;5053981;28;20052;-80
2023/05/02 19:11:39;;;;;;;5.30;1.23;;;;;;;13.43;41.69;100984.16;5071831;28;20721;-80
2023/05/02 19:14:05;;;;;;;3.08;1.00;;;;;;;13.40;41.88;100994.91;5053968;28;20514;-81
2023/05/02 19:16:38;;;;;;;1.98;1.27;;;;;;;13.37;42.01;100992.41;5071401;28;20041;-80
2023/05/02 19:19:05;;;;;;;;;;;;;;;13.35;41.94;100999.56;5072044;28;20049;-80
2023/05/02 19:21:33;;;;;;;1.73;0.75;;;;;;;13.37;41.54;100996.84;5071492;28;19975;-80
2023/05/02 19:24:00;;;;;;;1.83;0.90;;;;;;;13.33;42.03;100992.63;5071595;28;20052;-80
2023/05/02 19:26:27;;;;;;;6.70;1.30;;;;;;;13.27;42.07;100996.44;5071140;28;20476;-80
2023/05/02 19:28:53;;;;;;;2.42;1.20;;;;;;;13.24;42.23;101002.72;5071155;28;20139;-80
2023/05/02 19:31:20;;;;;;;2.55;1.25;;;;;;;13.20;42.15;101002.97;5071397;28;20052;-80
2023/05/02 19:33:50;;;;;;;4.22;1.27;;;;;;;13.14;42.19;101004.09;5071344;28;20689;-81
2023/05/02 19:36:18;;;;;;;3.35;1.13;;;;;;;13.09;42.05;101006.94;5053091;28;20041;-80
2023/05/02 19:38:50;;;;;;;1.75;1.17;;;;;;;13.01;42.51;101006.50;5070975;28;20139;-81
2023/05/02 19:41:17;;;;;;;2.97;1.20;;;;;;;12.97;42.27;101011.03;5071198;28;20462;-80
2023/05/02 19:43:44;;;;;;;3.53;1.25;;;;;;;12.93;42.51;101016.56;5071194;28;20044;-80
2023/05/02 19:46:10;;;;;;;4.53;1.20;;;;;;;12.87;42.47;101020.34;5070716;28;20507;-80
2023/05/02 19:48:37;;;;;;;3.33;1.15;;;;;;;12.82;42.28;101022.34;5070568;28;20102;-80
2023/05/02 19:51:03;;;;;;;1.95;0.88;;;;;;;12.75;42.38;101021.78;5071251;28;20090;-80
2023/05/02 19:53:31;;;;;;;3.28;0.93;;;;;;;12.71;42.57;101015.75;5071005;28;20583;-80
2023/05/02 19:56:00;;;;;;;6.32;1.05;;;;;;;12.69;42.52;101022.03;5052808;28;20603;-80
2023/05/02 19:58:27;;;;;;;4.75;1.25;;;;;;;12.64;42.49;101020.44;5070631;28;20044;-80
2023/05/02 20:00:54;;;;;;;9.10;0.98;;;;;;;12.61;42.71;101025.91;5070896;28;20070;-80
2023/05/02 20:03:21;;;;;;;3.97;0.80;;;;;;;12.58;42.59;101023.38;5070878;28;20044;-80
2023/05/02 20:05:48;;;;;;;3.83;1.02;;;;;;;12.55;42.55;101036.72;5062179;28;20047;-81
2023/05/02 20:08:16;;;;;;;2.40;0.90;;;;;;;12.51;42.60;101032.50;5062461;28;20088;-80
2023/05/02 20:10:43;;;;;;;8.15;1.20;;;;;;;12.46;42.54;101040.66;5085141;28;20063;-80
2023/05/02 20:13:10;;;;;;;2.10;1.05;;;;;;;12.41;42.78;101033.84;5091062;28;20098;-80
2023/05/02 20:15:37;;;;;;;2.85;0.90;;;;;;;12.35;42.77;101035.84;5090426;28;20084;-80
2023/05/02 20:18:04;;;;;;;6.22;1.40;;;;;;;12.30;42.73;101043.06;5090266;28;20109;-81
2023/05/02 20:20:30;;;;;;;1.60;1.10;;;;;;;12.23;42.87;101031.94;5072992;28;20056;-80
2023/05/02 20:22:58;;;;;;;3.92;1.40;;;;;;;12.18;42.95;101047.13;5090997;28;20411;-80
2023/05/02 20:25:24;;;;;;;2.92;1.30;;;;;;;12.11;43.04;101049.16;5090251;28;20566;-80
2023/05/02 20:27:51;;;;;;;4.70;1.38;;;;;;;12.05;42.99;101044.16;5090319;28;20051;-80
2023/05/02 20:30:18;;;;;;;3.65;1.70;;;;;;;12.00;43.04;101056.63;5090675;28;20048;-80
2023/05/02 20:32:45;;;;;;;2.45;1.50;;;;;;;11.95;43.04;101056.84;5090925;28;20048;-80
2023/05/02 20:35:11;;;;;;;3.40;1.23;;;;;;;11.90;43.21;101052.69;5079974;28;20048;-80
2023/05/02 20:37:38;;;;;;;6.05;1.50;;;;;;;11.85;43.35;101056.38;5070163;28;20044;-80
2023/05/02 20:40:08;;;;;;;3.30;1.35;;;;;;;11.80;43.27;101054.84;5070467;28;20049;-80
2023/05/02 20:42:37;;;;;;;2.92;1.27;;;;;;;11.74;43.36;101055.97;5070485;28;20052;-79
2023/05/02 20:45:07;;;;;;;3.45;1.15;;;;;;;11.68;43.19;101056.19;5052135;28;20528;-80
2023/05/02 20:47:34;;;;;;;5.28;1.45;;;;;;;11.63;43.40;101055.53;5069855;28;20071;-80
2023/05/02 20:50:00;;;;;;;1.55;1.00;;;;;;;11.55;43.19;101059.31;5070362;28;20088;-80
2023/05/02 20:52:28;;;;;;;4.97;1.23;;;;;;;11.47;43.54;101057.00;5052527;28;20045;-80
2023/05/02 20:54:55;;;;;;;4.53;1.38;;;;;;;11.41;43.66;101061.66;5069870;28;20136;-80
2023/05/02 20:57:23;;;;;;;3.17;1.17;;;;;;;11.35;43.77;101062.75;5052001;28;20059;-80
2023/05/02 20:59:49;;;;;;;2.83;1.23;;;;;;;11.30;44.40;101059.44;5070353;28;20135;-80